Time;durP1;ratioP1;P1;durP2;ratioP2;P2;SDS_P1;SDS_P2;PMS_P1;PMS_P2;Temp;Humidity;BMP_temperature;BMP_pressure;BME280_temperature;BME280_humidity;BME280_pressure;Samples;Min_cycle;Max_cycle;Signal;HPM_P1;HPM_P2
2021/04/03 00:01:06;;;;;;;18.50;4.87;;;6.50;99.90;;;;;;5092259;28;20450;-65
2021/04/03 00:03:33;;;;;;;16.80;5.20;;;6.50;99.90;;;;;;5082556;28;20481;-65
2021/04/03 00:06:00;;;;;;;21.23;4.83;;;6.50;99.90;;;;;;5100165;28;20486;-66
2021/04/03 00:08:27;;;;;;;13.47;3.60;;;6.50;99.90;;;;;;5101162;28;20537;-65
2021/04/03 00:10:56;;;;;;;21.93;4.73;;;6.60;99.90;;;;;;5107733;28;20473;-65
2021/04/03 00:13:25;;;;;;;17.30;3.97;;;6.60;99.90;;;;;;5094400;28;20541;-65
2021/04/03 00:15:52;;;;;;;15.33;3.87;;;6.70;99.90;;;;;;5089926;28;20983;-65
2021/04/03 00:18:18;;;;;;;18.93;3.90;;;6.70;99.90;;;;;;5091724;28;20546;-65
2021/04/03 00:20:47;;;;;;;16.87;4.97;;;6.80;99.90;;;;;;5106149;28;20469;-65
2021/04/03 00:23:15;;;;;;;17.40;5.00;;;6.70;99.90;;;;;;5091522;28;20513;-67
2021/04/03 00:25:41;;;;;;;23.50;5.20;;;6.70;99.90;;;;;;5092639;28;20445;-65
2021/04/03 00:28:08;;;;;;;20.53;4.60;;;6.80;99.90;;;;;;5073733;28;20556;-65
2021/04/03 00:30:34;;;;;;;21.17;5.30;;;6.80;99.90;;;;;;5072543;28;20889;-65
2021/04/03 00:33:03;;;;;;;19.23;5.57;;;6.80;99.90;;;;;;5088990;28;20542;-66
2021/04/03 00:35:30;;;;;;;18.20;4.50;;;6.80;99.90;;;;;;5092131;28;20465;-66
2021/04/03 00:37:58;;;;;;;15.87;4.23;;;6.80;99.90;;;;;;5077766;28;20528;-66
2021/04/03 00:40:27;;;;;;;14.00;4.40;;;6.70;99.90;;;;;;5074474;28;20449;-65
2021/04/03 00:42:55;;;;;;;25.73;6.80;;;6.70;99.90;;;;;;5077792;28;20489;-65
2021/04/03 00:45:22;;;;;;;12.20;3.30;;;6.50;99.90;;;;;;5071928;28;20461;-65
2021/04/03 00:47:49;;;;;;;11.30;2.33;;;6.30;99.90;;;;;;5072382;28;20533;-65
2021/04/03 00:50:21;;;;;;;13.63;2.53;;;6.10;99.90;;;;;;5081906;28;20530;-66
2021/04/03 00:52:47;;;;;;;13.23;3.03;;;6.00;99.90;;;;;;5072529;28;20540;-65
2021/04/03 00:55:14;;;;;;;13.77;2.50;;;5.90;99.90;;;;;;5082413;28;20429;-65
2021/04/03 00:57:42;;;;;;;14.47;3.37;;;5.80;99.90;;;;;;5074063;28;20526;-65
2021/04/03 01:00:11;;;;;;;12.07;2.30;;;5.80;99.90;;;;;;5080414;28;20849;-65
2021/04/03 01:02:38;;;;;;;18.57;3.87;;;5.70;99.90;;;;;;5091824;28;20474;-66
2021/04/03 01:05:08;;;;;;;11.33;2.80;;;5.70;99.90;;;;;;5091509;28;20532;-65
2021/04/03 01:07:34;;;;;;;23.33;3.37;;;5.70;99.90;;;;;;5084442;28;20588;-65
2021/04/03 01:10:01;;;;;;;15.57;3.50;;;5.70;99.90;;;;;;5086643;28;20529;-65
2021/04/03 01:12:36;;;;;;;13.00;2.70;;;5.70;99.90;;;;;;5092154;28;20496;-67
2021/04/03 01:15:08;;;;;;;18.20;3.07;;;5.70;99.90;;;;;;5091833;28;20535;-65
2021/04/03 01:17:49;;;;;;;10.97;2.87;;;5.70;99.90;;;;;;5090999;28;20978;-65
2021/04/03 01:20:37;;;;;;;18.73;3.90;;;5.70;99.90;;;;;;5076410;28;20456;-65
2021/04/03 01:23:44;;;;;;;15.13;2.70;;;5.70;99.90;;;;;;5069165;28;20983;-65
2021/04/03 01:26:29;;;;;;;17.93;3.10;;;5.60;99.90;;;;;;5060720;28;20448;-65
2021/04/03 01:29:10;;;;;;;21.97;4.33;;;5.70;99.90;;;;;;5090637;28;20970;-64
2021/04/03 01:31:38;;;;;;;18.70;4.17;;;5.70;99.90;;;;;;5092101;28;20427;-66
2021/04/03 01:34:07;;;;;;;23.23;4.17;;;5.70;99.90;;;;;;5087917;28;20983;-66
2021/04/03 01:36:36;;;;;;;18.77;3.50;;;5.70;99.90;;;;;;5071560;28;20425;-65
2021/04/03 01:39:06;;;;;;;20.83;2.87;;;5.70;99.90;;;;;;5078901;28;20605;-65
2021/04/03 01:41:35;;;;;;;15.60;3.53;;;5.70;99.90;;;;;;5077183;28;20460;-65
2021/04/03 01:44:04;;;;;;;14.63;3.63;;;5.70;99.90;;;;;;5071699;28;20481;-65
2021/04/03 01:46:34;;;;;;;11.17;2.87;;;5.70;99.90;;;;;;5071453;28;20452;-66
2021/04/03 01:49:06;;;;;;;15.87;2.87;;;5.70;99.90;;;;;;5090987;28;20523;-65
2021/04/03 01:51:34;;;;;;;19.93;3.20;;;5.70;99.90;;;;;;5086000;28;20882;-65
2021/04/03 01:54:01;;;;;;;15.00;3.03;;;5.80;99.90;;;;;;5071878;28;20455;-65
2021/04/03 01:56:30;;;;;;;13.40;2.30;;;5.80;99.90;;;;;;5075064;28;20792;-65
2021/04/03 01:58:57;;;;;;;19.93;3.33;;;5.80;99.90;;;;;;5091547;28;20450;-65
2021/04/03 02:01:25;;;;;;;13.50;2.93;;;5.90;99.90;;;;;;5077610;28;20554;-66
2021/04/03 02:03:52;;;;;;;21.37;3.30;;;5.90;99.90;;;;;;5071679;28;20560;-65
2021/04/03 02:06:21;;;;;;;14.30;2.60;;;5.80;99.90;;;;;;5083643;28;20456;-65
2021/04/03 02:08:48;;;;;;;21.60;3.90;;;5.90;99.90;;;;;;5090936;28;20514;-66
2021/04/03 02:11:15;;;;;;;15.30;3.00;;;5.90;99.90;;;;;;5079925;28;20457;-65
2021/04/03 02:13:42;;;;;;;15.53;3.47;;;5.90;99.90;;;;;;5078727;28;20456;-65
2021/04/03 02:16:09;;;;;;;14.67;2.80;;;5.90;99.90;;;;;;5080446;28;20545;-65
2021/04/03 02:18:38;;;;;;;13.43;2.70;;;5.90;99.90;;;;;;5071365;28;20459;-65
2021/04/03 02:21:06;;;;;;;18.67;2.73;;;6.00;99.90;;;;;;5083833;28;20541;-65
2021/04/03 02:23:34;;;;;;;21.50;3.60;;;6.00;99.90;;;;;;5092269;28;21052;-65
2021/04/03 02:26:01;;;;;;;21.33;3.60;;;6.00;99.90;;;;;;5082658;28;20512;-65
2021/04/03 02:28:27;;;;;;;20.90;2.97;;;6.10;99.90;;;;;;5075176;28;20461;-66
2021/04/03 02:30:54;;;;;;;18.33;3.63;;;6.10;99.90;;;;;;5091230;28;20480;-65
2021/04/03 02:33:21;;;;;;;17.73;2.93;;;6.10;99.90;;;;;;5095058;28;20445;-66
2021/04/03 02:35:48;;;;;;;16.97;3.23;;;6.00;99.90;;;;;;5085891;28;20534;-65
2021/04/03 02:38:15;;;;;;;18.83;3.10;;;6.00;99.90;;;;;;5074701;28;20428;-65
2021/04/03 02:40:43;;;;;;;16.00;2.60;;;6.00;99.90;;;;;;5081917;28;20454;-65
2021/04/03 02:43:14;;;;;;;23.40;3.30;;;6.10;99.90;;;;;;5094881;28;20932;-65
2021/04/03 02:45:44;;;;;;;28.27;4.33;;;6.20;99.90;;;;;;5083099;28;20504;-65
2021/04/03 02:48:17;;;;;;;18.90;3.60;;;6.20;99.90;;;;;;5074912;28;20967;-65
2021/04/03 02:50:44;;;;;;;13.93;3.07;;;6.10;99.90;;;;;;5074644;28;20421;-65
2021/04/03 02:53:12;;;;;;;13.43;2.63;;;6.20;99.90;;;;;;5074246;28;20540;-65
2021/04/03 02:55:45;;;;;;;19.70;3.10;;;6.20;99.90;;;;;;5083232;28;20535;-65
2021/04/03 02:58:13;;;;;;;16.53;2.97;;;6.00;99.90;;;;;;5093527;28;20540;-65
2021/04/03 03:00:41;;;;;;;13.50;2.63;;;6.00;99.90;;;;;;5085216;28;20447;-65
2021/04/03 03:03:10;;;;;;;22.00;3.63;;;6.00;99.90;;;;;;5074218;28;20574;-65
2021/04/03 03:05:37;;;;;;;20.33;3.77;;;6.00;99.90;;;;;;5091780;28;20921;-65
2021/04/03 03:08:05;;;;;;;16.27;2.80;;;6.00;99.90;;;;;;5093581;28;20457;-66
2021/04/03 03:10:32;;;;;;;14.17;3.33;;;6.00;99.90;;;;;;5077216;28;20826;-66
2021/04/03 03:13:00;;;;;;;17.93;3.67;;;6.00;99.90;;;;;;5073791;28;20422;-66
2021/04/03 03:15:31;;;;;;;14.60;2.63;;;6.00;99.90;;;;;;5088508;28;20423;-65
2021/04/03 03:17:58;;;;;;;22.10;4.20;;;6.20;99.90;;;;;;5088177;28;20985;-65
2021/04/03 03:20:24;;;;;;;16.43;3.07;;;6.20;99.90;;;;;;5106002;28;20964;-65
2021/04/03 03:22:51;;;;;;;20.50;3.10;;;6.30;99.90;;;;;;5073822;28;20858;-66
2021/04/03 03:25:18;;;;;;;27.77;3.93;;;6.20;99.90;;;;;;5080007;28;20869;-66
2021/04/03 03:27:47;;;;;;;34.70;5.23;;;6.30;99.90;;;;;;5093973;28;20464;-67
2021/04/03 03:30:18;;;;;;;14.77;3.10;;;6.30;99.90;;;;;;5087411;28;20482;-65
2021/04/03 03:32:44;;;;;;;15.07;3.07;;;6.30;99.90;;;;;;5073711;28;20946;-65
2021/04/03 03:35:13;;;;;;;14.20;2.23;;;6.30;99.90;;;;;;5076494;28;20461;-65
2021/04/03 03:37:39;;;;;;;17.73;3.63;;;6.30;99.90;;;;;;5085685;28;20500;-66
2021/04/03 03:40:07;;;;;;;14.43;3.13;;;6.30;99.90;;;;;;5073413;28;20977;-66
2021/04/03 03:42:35;;;;;;;16.43;2.73;;;6.30;99.90;;;;;;5073349;28;20456;-65
2021/04/03 03:45:03;;;;;;;17.77;3.30;;;6.30;99.90;;;;;;5082952;28;20495;-65
2021/04/03 03:47:31;;;;;;;16.80;2.90;;;6.40;99.90;;;;;;5073302;28;20512;-66
2021/04/03 03:49:58;;;;;;;13.83;2.80;;;6.40;99.90;;;;;;5076932;28;20533;-65
2021/04/03 03:52:24;;;;;;;13.20;3.40;;;6.40;99.90;;;;;;5096938;28;20453;-65
2021/04/03 03:54:50;;;;;;;14.70;3.30;;;6.40;99.90;;;;;;5103099;28;20447;-65
2021/04/03 03:57:17;;;;;;;14.40;2.53;;;6.40;99.90;;;;;;5086269;28;20549;-66
2021/04/03 03:59:43;;;;;;;9.13;1.50;;;6.40;99.90;;;;;;5072863;28;20541;-53
2021/04/03 04:02:09;;;;;;;13.87;2.77;;;9.80;99.90;;;;;;5077646;28;20989;-54
2021/04/03 04:04:37;;;;;;;15.77;2.70;;;9.80;99.90;;;;;;5093312;28;20442;-61
2021/04/03 04:07:03;;;;;;;15.20;2.63;;;10.50;99.90;;;;;;5090434;28;20453;-67
2021/04/03 04:09:30;;;;;;;16.90;2.87;;;9.70;99.90;;;;;;5093863;28;20878;-65
2021/04/03 04:11:56;;;;;;;12.80;2.67;;;9.20;99.90;;;;;;5082912;28;20779;-67
2021/04/03 04:14:23;;;;;;;15.67;2.40;;;8.70;99.90;;;;;;5074750;28;20549;-63
2021/04/03 04:16:49;;;;;;;15.93;2.70;;;8.40;99.90;;;;;;5088020;28;20887;-66
2021/04/03 04:19:15;;;;;;;13.77;2.60;;;8.20;99.90;;;;;;5091977;28;20449;-64
2021/04/03 04:21:43;;;;;;;12.80;2.73;;;7.80;99.90;;;;;;5092856;28;20446;-65
2021/04/03 04:24:09;;;;;;;18.80;4.50;;;7.60;99.90;;;;;;5092802;28;20572;-65
2021/04/03 04:26:36;;;;;;;16.77;3.20;;;7.20;99.90;;;;;;5080712;28;20454;-64
2021/04/03 04:29:02;;;;;;;14.17;2.37;;;6.90;99.90;;;;;;5079884;28;20945;-66
2021/04/03 04:31:28;;;;;;;16.53;2.77;;;6.60;99.90;;;;;;5092738;28;20536;-67
2021/04/03 04:33:55;;;;;;;15.50;2.47;;;6.50;99.90;;;;;;5091181;28;20450;-63
2021/04/03 04:36:21;;;;;;;17.60;2.60;;;6.30;99.90;;;;;;5088038;28;21033;-65
2021/04/03 04:38:48;;;;;;;18.03;3.17;;;6.20;99.90;;;;;;5085084;28;20461;-66
2021/04/03 04:41:15;;;;;;;17.23;3.80;;;6.10;99.90;;;;;;5088733;28;20491;-63
2021/04/03 04:43:41;;;;;;;17.83;3.00;;;6.00;99.90;;;;;;5072381;28;20543;-62
2021/04/03 04:46:07;;;;;;;16.80;3.67;;;5.80;99.90;;;;;;5071994;28;20549;-65
2021/04/03 04:48:34;;;;;;;17.07;3.60;;;5.80;99.90;;;;;;5072266;28;20564;-64
2021/04/03 04:51:00;;;;;;;13.30;2.83;;;5.70;99.90;;;;;;5072313;28;20486;-64
2021/04/03 04:53:26;;;;;;;13.10;2.70;;;5.60;99.90;;;;;;5072180;28;20535;-65
2021/04/03 04:55:54;;;;;;;17.17;3.20;;;5.50;99.90;;;;;;5087508;28;20461;-63
2021/04/03 04:58:20;;;;;;;21.10;3.00;;;5.40;99.90;;;;;;5092418;28;20449;-64
2021/04/03 05:00:46;;;;;;;17.73;3.07;;;5.20;99.90;;;;;;5092399;28;20538;-64
2021/04/03 05:03:12;;;;;;;15.50;3.20;;;5.10;99.90;;;;;;5092420;28;20594;-65
2021/04/03 05:05:39;;;;;;;15.97;2.67;;;5.00;99.90;;;;;;5087794;28;20435;-67
2021/04/03 05:08:06;;;;;;;19.50;3.27;;;4.90;99.90;;;;;;5091705;28;20459;-64
2021/04/03 05:10:32;;;;;;;18.20;2.63;;;4.80;99.90;;;;;;5080747;28;20545;-64
2021/04/03 05:13:00;;;;;;;19.67;3.27;;;4.80;99.90;;;;;;5087681;28;20457;-62
2021/04/03 05:15:27;;;;;;;12.70;3.23;;;4.70;99.90;;;;;;5082899;28;20536;-63
2021/04/03 05:17:53;;;;;;;15.50;2.87;;;4.70;99.90;;;;;;5096134;28;21003;-64
2021/04/03 05:20:20;;;;;;;17.27;3.17;;;4.60;99.90;;;;;;5091976;28;20518;-63
2021/04/03 05:22:46;;;;;;;14.00;2.77;;;4.60;99.90;;;;;;5100812;28;20477;-63
2021/04/03 05:25:13;;;;;;;17.57;3.30;;;4.50;99.90;;;;;;5102045;28;20443;-63
2021/04/03 05:27:40;;;;;;;13.33;2.37;;;4.50;99.90;;;;;;5098770;28;20438;-63
2021/04/03 05:30:08;;;;;;;14.00;2.73;;;4.50;99.90;;;;;;5101022;28;20501;-63
2021/04/03 05:32:35;;;;;;;15.50;3.07;;;4.50;99.90;;;;;;5102104;28;20959;-66
2021/04/03 05:35:01;;;;;;;12.33;3.40;;;4.50;99.90;;;;;;5099263;28;20535;-64
2021/04/03 05:37:28;;;;;;;15.43;2.73;;;4.50;99.90;;;;;;5100438;28;20482;-63
2021/04/03 05:39:54;;;;;;;17.83;3.50;;;4.50;99.90;;;;;;5099685;28;20504;-63
2021/04/03 05:42:20;;;;;;;19.10;4.57;;;4.50;99.90;;;;;;5096595;28;20487;-66
2021/04/03 05:44:48;;;;;;;21.83;3.53;;;4.50;99.90;;;;;;5095212;28;20418;-63
2021/04/03 05:47:15;;;;;;;10.30;2.67;;;4.50;99.90;;;;;;5086631;28;20450;-62
2021/04/03 05:49:43;;;;;;;16.00;4.30;;;4.60;99.90;;;;;;5089352;28;20528;-65
2021/04/03 05:52:10;;;;;;;19.90;4.27;;;4.70;99.90;;;;;;5098579;28;20534;-65
2021/04/03 05:54:38;;;;;;;12.90;3.30;;;4.70;99.90;;;;;;5095917;28;20430;-63
2021/04/03 05:57:06;;;;;;;13.33;3.37;;;4.70;99.90;;;;;;5098983;28;20544;-63
2021/04/03 05:59:33;;;;;;;10.70;3.63;;;4.80;99.90;;;;;;5100224;28;20417;-62
2021/04/03 06:02:00;;;;;;;20.47;3.93;;;4.80;99.90;;;;;;5094769;28;20478;-63
2021/04/03 06:04:27;;;;;;;24.90;3.93;;;4.80;99.90;;;;;;5084228;28;20474;-63
2021/04/03 06:06:55;;;;;;;16.73;3.60;;;4.90;99.90;;;;;;5086387;28;20468;-63
2021/04/03 06:09:21;;;;;;;15.00;2.87;;;5.00;99.90;;;;;;5087975;28;20450;-63
2021/04/03 06:11:49;;;;;;;17.13;4.47;;;5.00;99.90;;;;;;5089827;28;20434;-64
2021/04/03 06:14:17;;;;;;;21.17;3.20;;;5.00;99.90;;;;;;5097216;28;20442;-63
2021/04/03 06:16:45;;;;;;;18.93;3.90;;;5.10;99.90;;;;;;5082301;28;20460;-62
2021/04/03 06:19:14;;;;;;;18.53;3.77;;;5.20;99.90;;;;;;5086061;28;20543;-64
2021/04/03 06:21:43;;;;;;;21.53;4.47;;;5.40;99.90;;;;;;5098293;28;20825;-65
2021/04/03 06:24:21;;;;;;;16.27;3.50;;;5.70;99.90;;;;;;5095006;28;20502;-63
2021/04/03 06:26:59;;;;;;;20.33;3.60;;;5.80;99.90;;;;;;5094840;28;20573;-64
2021/04/03 06:29:29;;;;;;;15.40;4.03;;;5.80;99.90;;;;;;5089189;28;20876;-63
2021/04/03 06:31:57;;;;;;;23.50;3.47;;;5.90;99.90;;;;;;5088659;28;20974;-64
2021/04/03 06:34:34;;;;;;;16.40;2.90;;;6.10;99.90;;;;;;5089873;28;20473;-64
2021/04/03 06:37:02;;;;;;;19.60;4.40;;;6.20;99.90;;;;;;5089128;28;20469;-64
2021/04/03 06:39:29;;;;;;;20.87;3.97;;;6.30;99.90;;;;;;5092074;28;20469;-65
2021/04/03 06:41:55;;;;;;;16.90;3.57;;;6.40;99.90;;;;;;5096272;28;20514;-62
2021/04/03 06:44:23;;;;;;;19.73;3.80;;;6.40;99.90;;;;;;5089190;28;20484;-65
2021/04/03 06:46:52;;;;;;;19.10;4.03;;;6.40;99.90;;;;;;5085930;28;20466;-63
2021/04/03 06:49:18;;;;;;;21.27;3.77;;;6.30;99.90;;;;;;5088748;28;20503;-63
2021/04/03 06:51:45;;;;;;;22.37;4.23;;;6.40;99.90;;;;;;5098462;28;20431;-63
2021/04/03 06:54:13;;;;;;;16.70;3.80;;;6.50;99.90;;;;;;5084520;28;20477;-64
2021/04/03 06:56:41;;;;;;;22.87;4.07;;;6.50;99.90;;;;;;5088348;28;20968;-65
2021/04/03 06:59:09;;;;;;;21.93;4.23;;;6.60;99.90;;;;;;5095911;28;20515;-63
2021/04/03 07:01:50;;;;;;;24.90;4.67;;;6.80;99.90;;;;;;5102092;28;20554;-65
2021/04/03 07:04:26;;;;;;;15.70;3.50;;;7.00;99.90;;;;;;5082315;28;20488;-63
2021/04/03 07:06:53;;;;;;;25.00;4.23;;;7.30;99.90;;;;;;5083402;28;20454;-65
2021/04/03 07:09:21;;;;;;;17.53;3.57;;;7.40;99.90;;;;;;5092964;28;20469;-63
2021/04/03 07:11:48;;;;;;;19.73;4.60;;;7.80;99.90;;;;;;5080583;28;20501;-64
2021/04/03 07:14:18;;;;;;;19.60;4.23;;;8.20;99.90;;;;;;5094361;28;20477;-65
2021/04/03 07:16:46;;;;;;;23.93;5.73;;;8.50;99.90;;;;;;5093037;28;20600;-64
2021/04/03 07:19:13;;;;;;;20.63;4.13;;;8.70;99.90;;;;;;5097359;28;20562;-65
2021/04/03 07:21:41;;;;;;;22.27;4.57;;;9.00;99.90;;;;;;5096113;28;20443;-63
2021/04/03 07:24:10;;;;;;;13.90;3.27;;;8.90;99.90;;;;;;5092909;28;20612;-63
2021/04/03 07:26:38;;;;;;;14.40;4.00;;;8.80;99.90;;;;;;5086491;28;20470;-63
2021/04/03 07:29:05;;;;;;;19.23;4.17;;;8.60;99.90;;;;;;5088023;28;20473;-63
2021/04/03 07:31:40;;;;;;;19.73;3.60;;;8.70;99.90;;;;;;5082847;28;20951;-65
2021/04/03 07:34:07;;;;;;;22.93;5.53;;;8.90;99.90;;;;;;5085131;28;20889;-62
2021/04/03 07:36:35;;;;;;;22.87;4.53;;;9.30;99.90;;;;;;5085337;28;20891;-64
2021/04/03 07:39:03;;;;;;;23.00;4.80;;;9.50;99.90;;;;;;5091674;28;20536;-64
2021/04/03 07:41:37;;;;;;;17.87;4.17;;;9.30;99.90;;;;;;5082841;28;20883;-62
2021/04/03 07:44:13;;;;;;;23.27;5.63;;;9.40;99.90;;;;;;5088710;28;20855;-62
2021/04/03 07:46:42;;;;;;;23.73;5.10;;;9.30;99.90;;;;;;5092483;28;20454;-63
2021/04/03 07:49:11;;;;;;;17.87;4.80;;;9.20;99.90;;;;;;5091614;28;20550;-63
2021/04/03 07:51:47;;;;;;;23.27;5.27;;;9.80;99.90;;;;;;5088712;28;20454;-65
2021/04/03 07:54:30;;;;;;;19.63;4.67;;;9.90;99.90;;;;;;5085524;28;20533;-66
2021/04/03 07:57:01;;;;;;;18.37;5.10;;;10.70;99.90;;;;;;5075949;28;20467;-67
2021/04/03 07:59:53;;;;;;;18.83;5.40;;;12.10;99.90;;;;;;5082898;28;20510;-65
2021/04/03 08:02:22;;;;;;;16.60;4.30;;;13.60;99.90;;;;;;5081144;28;21138;-64
2021/04/03 08:04:49;;;;;;;14.73;4.50;;;13.10;99.90;;;;;;5088697;28;20442;-63
2021/04/03 08:07:19;;;;;;;12.73;3.80;;;12.80;99.90;;;;;;5093557;28;20540;-63
2021/04/03 08:09:46;;;;;;;18.10;4.70;;;12.70;99.90;;;;;;5097763;28;20459;-65
2021/04/03 08:12:13;;;;;;;16.77;5.87;;;12.50;99.90;;;;;;5082474;28;20574;-63
2021/04/03 08:14:42;;;;;;;25.13;8.83;;;12.60;99.90;;;;;;5098170;28;20548;-66
2021/04/03 08:17:18;;;;;;;23.77;6.20;;;11.70;99.90;;;;;;5090880;28;20541;-64
2021/04/03 08:19:44;;;;;;;27.23;9.80;;;11.50;99.90;;;;;;5089081;28;20507;-62
2021/04/03 08:22:10;;;;;;;21.17;7.77;;;11.20;99.90;;;;;;5096105;28;20455;-65
2021/04/03 08:24:37;;;;;;;22.47;7.80;;;10.80;99.90;;;;;;5105745;28;20446;-64
2021/04/03 08:27:04;;;;;;;24.77;8.60;;;10.80;99.90;;;;;;5097079;28;20444;-63
2021/04/03 08:29:33;;;;;;;21.57;8.70;;;10.80;99.90;;;;;;5090664;28;20452;-65
2021/04/03 08:32:01;;;;;;;21.97;9.00;;;10.90;99.90;;;;;;5085011;28;20511;-64
2021/04/03 08:34:28;;;;;;;20.33;8.70;;;11.10;99.90;;;;;;5092382;28;20549;-64
2021/04/03 08:36:55;;;;;;;25.90;6.97;;;11.10;99.90;;;;;;5081830;28;20976;-65
2021/04/03 08:39:23;;;;;;;19.13;6.80;;;11.20;99.90;;;;;;5077482;28;20930;-65
2021/04/03 08:41:51;;;;;;;21.13;8.30;;;11.40;99.90;;;;;;5078993;28;20453;-67
2021/04/03 08:44:19;;;;;;;25.80;8.20;;;11.70;99.90;;;;;;5084245;28;20486;-64
2021/04/03 08:46:48;;;;;;;26.00;7.77;;;11.10;99.90;;;;;;5086467;28;20533;-64
2021/04/03 08:49:22;;;;;;;19.47;9.20;;;10.90;99.90;;;;;;5095137;28;20458;-65
2021/04/03 08:51:49;;;;;;;34.27;8.90;;;11.10;99.90;;;;;;5094451;28;20445;-64
2021/04/03 08:54:16;;;;;;;15.23;5.40;;;11.00;99.90;;;;;;5093599;28;20454;-63
2021/04/03 08:56:42;;;;;;;18.27;6.30;;;11.20;99.90;;;;;;5093185;28;20809;-63
2021/04/03 08:59:14;;;;;;;21.60;7.13;;;11.30;99.90;;;;;;5094769;28;20456;-64
2021/04/03 09:01:44;;;;;;;25.57;6.50;;;11.40;99.90;;;;;;5093813;28;20442;-63
2021/04/03 09:04:12;;;;;;;21.37;5.10;;;11.40;99.90;;;;;;5101650;28;20570;-63
2021/04/03 09:06:57;;;;;;;20.30;6.27;;;12.40;99.90;;;;;;5097920;28;20445;-64
2021/04/03 09:09:25;;;;;;;18.33;7.00;;;12.30;99.90;;;;;;5076087;28;20463;-63
2021/04/03 09:11:55;;;;;;;21.00;6.50;;;12.50;99.90;;;;;;5085404;28;20457;-64
2021/04/03 09:14:26;;;;;;;20.50;8.27;;;12.60;99.90;;;;;;5087857;28;20459;-63
2021/04/03 09:16:53;;;;;;;27.67;11.80;;;12.70;99.90;;;;;;5089411;28;20450;-64
2021/04/03 09:19:27;;;;;;;20.50;9.00;;;12.20;99.90;;;;;;5087903;28;20442;-65
2021/04/03 09:21:54;;;;;;;17.67;7.50;;;12.20;99.90;;;;;;5084053;28;20477;-63
2021/04/03 09:24:37;;;;;;;23.90;10.43;;;12.00;99.90;;;;;;5090070;28;20647;-65
2021/04/03 09:27:15;;;;;;;21.57;8.83;;;11.60;99.90;;;;;;5092623;28;20470;-64
2021/04/03 09:29:43;;;;;;;23.50;7.80;;;11.80;99.90;;;;;;5096489;28;20449;-64
2021/04/03 09:32:11;;;;;;;16.50;7.70;;;11.90;99.90;;;;;;5082294;28;20941;-63
2021/04/03 09:34:39;;;;;;;21.93;7.67;;;12.00;99.90;;;;;;5087295;28;20454;-63
2021/04/03 09:37:14;;;;;;;19.00;7.17;;;11.70;99.90;;;;;;5086021;28;20533;-66
2021/04/03 09:39:45;;;;;;;13.60;5.90;;;11.40;99.90;;;;;;5088635;28;20601;-63
2021/04/03 09:42:13;;;;;;;20.50;5.70;;;11.40;99.90;;;;;;5092777;28;20967;-65
2021/04/03 09:44:40;;;;;;;16.37;5.70;;;11.50;99.90;;;;;;5105316;28;20534;-66
2021/04/03 09:47:06;;;;;;;16.70;6.13;;;12.10;99.90;;;;;;5090960;28;20838;-63
2021/04/03 09:49:33;;;;;;;22.10;6.20;;;12.70;99.90;;;;;;5083852;28;20460;-66
2021/04/03 09:52:00;;;;;;;18.67;5.90;;;12.70;99.90;;;;;;5096172;28;20446;-66
2021/04/03 09:54:26;;;;;;;15.73;5.60;;;12.60;99.90;;;;;;5083615;28;20576;-64
2021/04/03 09:56:53;;;;;;;15.73;5.40;;;12.80;99.90;;;;;;5092666;28;20545;-63
2021/04/03 09:59:19;;;;;;;17.03;5.57;;;12.90;99.90;;;;;;5091676;28;20445;-66
2021/04/03 10:01:46;;;;;;;19.03;5.60;;;13.30;99.90;;;;;;5090385;28;20438;-64
2021/04/03 10:04:12;;;;;;;14.40;5.97;;;12.90;99.90;;;;;;5086714;28;20481;-64
2021/04/03 10:06:39;;;;;;;22.47;6.37;;;13.50;99.90;;;;;;5096329;28;20540;-65
2021/04/03 10:09:06;;;;;;;16.70;5.20;;;16.60;99.90;;;;;;5087592;28;20463;-65
2021/04/03 10:11:33;;;;;;;19.13;5.23;;;18.00;99.90;;;;;;5084839;28;20542;-64
2021/04/03 10:14:00;;;;;;;13.13;5.27;;;18.90;99.90;;;;;;5096011;28;20481;-64
2021/04/03 10:16:26;;;;;;;14.23;5.30;;;18.10;99.90;;;;;;5100282;28;20440;-64
2021/04/03 10:18:53;;;;;;;16.20;4.83;;;16.00;99.90;;;;;;5103467;28;20446;-63
2021/04/03 10:21:20;;;;;;;12.73;4.40;;;14.60;99.90;;;;;;5094780;28;20520;-63
2021/04/03 10:23:46;;;;;;;16.20;5.17;;;17.50;99.90;;;;;;5091512;28;20545;-65
2021/04/03 10:26:14;;;;;;;10.77;4.23;;;19.40;99.90;;;;;;5104039;28;21025;-63
2021/04/03 10:28:40;;;;;;;16.30;4.90;;;20.80;99.90;;;;;;5098598;28;20986;-64
2021/04/03 10:31:06;;;;;;;14.43;5.33;;;22.70;98.40;;;;;;5091461;28;20457;-64
2021/04/03 10:33:33;;;;;;;13.30;6.23;;;22.70;91.90;;;;;;5089237;28;21001;-65
2021/04/03 10:35:59;;;;;;;14.70;6.30;;;22.60;89.70;;;;;;5100269;28;20541;-64
2021/04/03 10:38:26;;;;;;;16.37;7.13;;;20.70;85.10;;;;;;5078835;28;20445;-64
2021/04/03 10:40:52;;;;;;;16.30;6.60;;;19.30;87.20;;;;;;5084286;28;21261;-64
2021/04/03 10:43:19;;;;;;;15.07;7.30;;;18.10;90.20;;;;;;5091222;28;20489;-65
2021/04/03 10:45:46;;;;;;;12.83;6.00;;;17.50;90.90;;;;;;5094533;28;20484;-65
2021/04/03 10:48:12;;;;;;;13.60;6.13;;;17.20;92.60;;;;;;5090956;28;20529;-64
2021/04/03 10:50:40;;;;;;;16.70;7.37;;;18.20;91.90;;;;;;5088839;28;20948;-64
2021/04/03 10:53:06;;;;;;;15.27;5.10;;;18.20;92.10;;;;;;5087935;28;20458;-66
2021/04/03 10:55:33;;;;;;;13.40;4.47;;;20.00;92.60;;;;;;5090449;28;20442;-66
2021/04/03 10:57:59;;;;;;;17.67;5.20;;;21.60;90.30;;;;;;5095171;28;20533;-63
2021/04/03 11:00:28;;;;;;;10.30;4.57;;;23.70;85.30;;;;;;5094260;28;20452;-65
2021/04/03 11:02:55;;;;;;;15.60;4.83;;;23.80;84.30;;;;;;5086045;28;20572;-66
2021/04/03 11:05:21;;;;;;;13.03;4.70;;;25.40;80.20;;;;;;5093652;28;20501;-64
2021/04/03 11:07:48;;;;;;;15.40;5.43;;;25.90;77.00;;;;;;5098375;28;20458;-65
2021/04/03 11:10:14;;;;;;;14.93;5.40;;;26.70;73.90;;;;;;5090600;28;20556;-66
2021/04/03 11:12:41;;;;;;;11.80;4.67;;;26.60;63.20;;;;;;5107509;28;20966;-65
2021/04/03 11:15:08;;;;;;;14.93;5.73;;;25.90;61.00;;;;;;5083567;28;21339;-64
2021/04/03 11:17:36;;;;;;;11.87;4.90;;;23.40;60.90;;;;;;5092585;28;20929;-65
2021/04/03 11:20:05;;;;;;;15.10;5.43;;;23.10;60.70;;;;;;5084987;28;20453;-65
2021/04/03 11:22:32;;;;;;;10.40;4.53;;;22.70;62.00;;;;;;5088567;28;20670;-65
2021/04/03 11:24:58;;;;;;;11.60;4.20;;;23.20;62.50;;;;;;5088011;28;20454;-67
2021/04/03 11:27:25;;;;;;;11.67;4.83;;;25.50;66.80;;;;;;5089609;28;20451;-65
2021/04/03 11:29:51;;;;;;;15.97;6.63;;;25.50;58.80;;;;;;5083407;28;20451;-64
2021/04/03 11:32:17;;;;;;;11.10;4.57;;;26.30;59.20;;;;;;5090286;28;20454;-64
2021/04/03 11:34:45;;;;;;;13.83;5.50;;;25.30;58.30;;;;;;5082310;28;20457;-67
2021/04/03 11:37:11;;;;;;;12.03;5.00;;;25.90;63.00;;;;;;5093349;28;20454;-65
2021/04/03 11:39:38;;;;;;;10.47;5.20;;;26.10;58.00;;;;;;5085467;28;20439;-65
2021/04/03 11:42:06;;;;;;;12.70;6.80;;;24.10;58.30;;;;;;5083934;28;20821;-65
2021/04/03 11:44:32;;;;;;;11.73;5.37;;;24.60;58.80;;;;;;5083774;28;20551;-65
2021/04/03 11:46:59;;;;;;;14.63;6.23;;;23.10;57.10;;;;;;5081896;28;20454;-65
2021/04/03 11:49:25;;;;;;;13.10;5.20;;;22.40;60.70;;;;;;5084410;28;20529;-65
2021/04/03 11:51:53;;;;;;;11.03;4.50;;;22.20;60.30;;;;;;5091341;28;20446;-65
2021/04/03 11:54:19;;;;;;;12.57;5.20;;;22.00;58.70;;;;;;5084526;28;20450;-65
2021/04/03 11:56:46;;;;;;;10.10;4.50;;;21.00;58.90;;;;;;5085397;28;20803;-65
2021/04/03 11:59:13;;;;;;;12.80;5.17;;;20.70;59.50;;;;;;5092085;28;20842;-64
2021/04/03 12:01:39;;;;;;;14.50;5.00;;;19.40;62.10;;;;;;5093490;28;20441;-64
2021/04/03 12:04:06;;;;;;;12.60;4.97;;;21.20;61.30;;;;;;5079414;28;20574;-65
2021/04/03 12:06:32;;;;;;;12.93;4.63;;;23.60;63.60;;;;;;5072751;28;20542;-64
2021/04/03 12:09:00;;;;;;;12.30;6.07;;;24.00;60.00;;;;;;5072450;28;20461;-63
2021/04/03 12:11:26;;;;;;;13.40;4.50;;;21.80;58.50;;;;;;5076812;28;20518;-63
2021/04/03 12:13:53;;;;;;;9.93;4.53;;;23.10;59.40;;;;;;5083503;28;20537;-65
2021/04/03 12:16:19;;;;;;;9.90;3.93;;;21.50;58.10;;;;;;5092834;28;20458;-64
2021/04/03 12:18:54;;;;;;;8.63;3.90;;;19.80;58.50;;;;;;5150607;27;20532;-66
2021/04/03 12:21:21;;;;;;;11.67;4.50;;;18.50;62.70;;;;;;5150718;27;21000;-65
2021/04/03 12:23:47;;;;;;;11.70;4.03;;;18.20;63.90;;;;;;5150233;27;20448;-65
2021/04/03 12:26:13;;;;;;;10.47;4.23;;;20.50;64.80;;;;;;5150431;27;20486;-64
2021/04/03 12:28:40;;;;;;;11.13;4.20;;;22.40;62.00;;;;;;5150793;27;20522;-63
2021/04/03 12:31:06;;;;;;;14.33;4.80;;;22.80;59.90;;;;;;5149221;27;20444;-63
2021/04/03 12:33:33;;;;;;;13.10;5.13;;;24.10;57.00;;;;;;5151132;27;20442;-64
2021/04/03 12:36:00;;;;;;;10.87;5.33;;;25.80;56.30;;;;;;5150332;27;20553;-62
2021/04/03 12:38:26;;;;;;;9.90;4.30;;;24.30;56.10;;;;;;5147651;27;20565;-63
2021/04/03 12:40:53;;;;;;;10.97;4.00;;;24.00;56.60;;;;;;5150645;27;20534;-63
2021/04/03 12:43:19;;;;;;;12.53;4.13;;;23.70;58.70;;;;;;5150419;27;20442;-63
2021/04/03 12:45:45;;;;;;;8.90;3.80;;;23.30;55.90;;;;;;5150005;27;20539;-64
2021/04/03 12:48:12;;;;;;;13.37;4.53;;;22.30;59.10;;;;;;5142841;27;20488;-64